Airfield :
LOGIN :

Register | Disclaimer

   EN    FR    IT 

 










Legend :    VFR   Marginal VFR   IFR   Intensive IFR   Very Intensive IFR
Visi :
Ceiling :
>= 8 km
>= 3000ft
5 to 8 km
1000 to 3000 ft
1500m to 5 km
500 to 1000 ft
800 to 1500m
200 to 500 ft
< 800m
< 200 ft
Symbols :   Thunderstorms  Fog  Heavy snow  Heavy precipitations  Wind > 20 kt
SIGMETs :     Misc.  Thunderstorms  Icing  Turbulence  Mountain Waves  Volcanic Ashes







- Airport Elevation : 436 ft
- IATA code : BTS


LZIB - Bratislava

CURRENT METAR :
  • 240700Z 32018G28KT 280V340 9999 FEW030 BKN047 12/04 Q1021 NOSIG

EXPIRED METARs :
  • 240630Z 31016KT 9999 FEW028 SCT048 12/04 Q1020 NOSIG
  • 240600Z 32015KT 9999 FEW026 BKN046 11/04 Q1020 NOSIG
  • 240530Z 32013KT 9999 FEW026 BKN045 11/04 Q1020 NOSIG
  • 240500Z 33014KT 9999 BKN036 11/04 Q1019 NOSIG
  • 240430Z 32026KT 9999 BKN036 11/04 Q1018 NOSIG
  • 240401Z 32016G26KT 9999 BKN036 12/05 Q1017

TAF TAF LZIB
Valid from the 24 at 06:00 until the 25 at 06:00 UTC


240500Z 2406/2506 34018KT 9999 BKN040
TEMPO 2406/2409 32025G35KT
BECMG 2407/2409 SCT045 SCT100
PROB40
TEMPO 2411/2415 SHRA BKN037
BECMG 2417/2419 31010KT CAVOK
No reported NOTAMs for that airfield.



MET'MAP, your aeronautical weather chart ! - Copyright ORBIFLY December 2007 - Disclaimer

ORBIFLY MET'MAP TEAM :

Programming & Development : Alexandra Zaïnal
Concept & Development : Baudouin d'Aumeries
Co-Development & Prog : Marc-Olivier Méhu
Technical & hardware support : Manuel Goepfert

Contact : metmap@orbifly.com




SOURCES & CREDITS :

   NOAA